Time;durP1;ratioP1;P1;durP2;ratioP2;P2;SDS_P1;SDS_P2;PMS_P1;PMS_P2;Temp;Humidity;BMP_temperature;BMP_pressure;BME280_temperature;BME280_humidity;BME280_pressure;Samples;Min_cycle;Max_cycle;Signal;HPM_P1;HPM_P2
2023/03/13 00:01:46;;;;;;;4.82;1.92;;;14.80;65.40;;;;;;10448582;28;20464;-55
2023/03/13 00:06:46;;;;;;;5.30;2.28;;;14.80;65.50;;;;;;10447951;28;20068;-53
2023/03/13 00:11:47;;;;;;;4.75;1.52;;;14.80;65.50;;;;;;10449661;28;20025;-53
2023/03/13 00:16:48;;;;;;;4.15;1.70;;;14.70;65.40;;;;;;10449762;28;20112;-54
2023/03/13 00:21:49;;;;;;;5.35;2.78;;;14.80;65.40;;;;;;10449006;28;20113;-54
2023/03/13 00:26:49;;;;;;;5.18;1.88;;;14.80;65.30;;;;;;10447327;28;20441;-54
2023/03/13 00:31:50;;;;;;;5.50;1.80;;;14.80;65.30;;;;;;10447599;28;20112;-54
2023/03/13 00:36:51;;;;;;;5.22;1.77;;;14.70;65.20;;;;;;10448832;28;20114;-53
2023/03/13 00:41:51;;;;;;;6.28;1.83;;;14.70;65.30;;;;;;10448866;28;20503;-53
2023/03/13 00:46:52;;;;;;;4.35;1.70;;;14.70;65.30;;;;;;10448304;28;20425;-54
2023/03/13 00:51:52;;;;;;;7.25;1.58;;;14.70;65.30;;;;;;10442696;28;20036;-54
2023/03/13 00:56:53;;;;;;;4.88;2.20;;;14.70;65.30;;;;;;10445681;28;20490;-55
2023/03/13 01:01:54;;;;;;;4.50;1.77;;;14.70;65.30;;;;;;10447607;28;20092;-55
2023/03/13 01:06:54;;;;;;;5.78;2.53;;;14.70;70.70;;;;;;10447585;28;20048;-55
2023/03/13 01:11:55;;;;;;;4.68;1.80;;;14.80;70.50;;;;;;10429754;28;20031;-54
2023/03/13 01:16:56;;;;;;;4.32;1.67;;;14.90;69.60;;;;;;10429401;28;20120;-53
2023/03/13 01:21:56;;;;;;;4.15;2.60;;;14.90;69.10;;;;;;10447355;28;20523;-53
2023/03/13 01:26:57;;;;;;;4.47;1.77;;;14.90;68.90;;;;;;10446503;28;20056;-54
2023/03/13 01:31:58;;;;;;;5.65;2.08;;;14.90;68.70;;;;;;10446051;28;20021;-55
2023/03/13 01:36:58;;;;;;;4.85;1.33;;;14.80;68.60;;;;;;10446486;28;20118;-53
2023/03/13 01:41:59;;;;;;;4.95;2.45;;;14.80;68.50;;;;;;10444305;28;20487;-54
2023/03/13 01:47:00;;;;;;;3.47;1.75;;;14.80;68.30;;;;;;10444685;28;20022;-55
2023/03/13 01:52:24;;;;;;;3.10;1.67;;;14.80;68.30;;;;;;10444019;28;20384;-53
2023/03/13 01:57:32;;;;;;;3.40;1.83;;;14.80;68.30;;;;;;10445178;28;20025;-55
2023/03/13 02:02:35;;;;;;;3.55;1.85;;;14.80;68.20;;;;;;10427962;28;20025;-55
2023/03/13 02:07:47;;;;;;;3.45;1.42;;;14.80;68.00;;;;;;10443711;28;20079;-54
2023/03/13 02:12:49;;;;;;;4.80;1.95;;;14.80;68.00;;;;;;10443804;28;20033;-53
2023/03/13 02:17:50;;;;;;;4.57;2.08;;;14.70;67.90;;;;;;10426200;28;20642;-54
2023/03/13 02:23:32;;;;;;;5.65;2.67;;;14.70;67.90;;;;;;10443149;28;20408;-55
2023/03/13 02:28:37;;;;;;;3.33;1.45;;;14.70;67.70;;;;;;10442608;28;20238;-54
2023/03/13 02:33:41;;;;;;;3.03;1.17;;;14.70;67.70;;;;;;10443196;28;20080;-55
2023/03/13 02:39:00;;;;;;;5.05;2.13;;;14.70;67.70;;;;;;10442608;28;20082;-55
2023/03/13 02:44:00;;;;;;;5.33;1.33;;;14.70;67.60;;;;;;10442460;28;20025;-53
2023/03/13 02:49:21;;;;;;;2.72;1.10;;;14.70;67.60;;;;;;10448172;28;20511;-54
2023/03/13 02:54:32;;;;;;;4.13;1.80;;;14.70;67.50;;;;;;10441902;28;20192;-54
2023/03/13 02:59:34;;;;;;;4.03;1.70;;;14.70;67.40;;;;;;10441791;28;20036;-53
2023/03/13 03:04:34;;;;;;;4.03;1.35;;;14.60;67.30;;;;;;10443263;28;20379;-53
2023/03/13 03:09:35;;;;;;;2.30;1.50;;;14.60;67.30;;;;;;10443075;28;20092;-54
2023/03/13 03:14:36;;;;;;;3.15;1.30;;;14.60;67.20;;;;;;10441446;28;20136;-54
2023/03/13 03:19:37;;;;;;;4.07;2.00;;;14.60;67.30;;;;;;10444253;28;20056;-54
2023/03/13 03:24:37;;;;;;;2.88;1.33;;;14.60;67.20;;;;;;10456762;28;20025;-55
2023/03/13 03:29:38;;;;;;;3.35;1.75;;;14.60;67.30;;;;;;10456377;28;20031;-55
2023/03/13 03:34:39;;;;;;;3.25;2.03;;;14.60;67.30;;;;;;10456336;28;20013;-53
2023/03/13 03:39:39;;;;;;;3.45;1.30;;;14.60;67.20;;;;;;10455984;28;20036;-54
2023/03/13 03:44:41;;;;;;;2.42;1.38;;;14.70;67.10;;;;;;10455803;28;20017;-53
2023/03/13 03:49:42;;;;;;;3.47;1.10;;;14.80;66.60;;;;;;10455562;28;20021;-55
2023/03/13 03:54:42;;;;;;;3.90;1.23;;;15.10;65.60;;;;;;10455897;28;20100;-56
2023/03/13 03:59:43;;;;;;;3.20;1.30;;;15.40;64.80;;;;;;10454467;28;20033;-55
2023/03/13 04:04:44;;;;;;;3.45;1.20;;;15.60;64.10;;;;;;10456083;28;20053;-54
2023/03/13 04:09:44;;;;;;;3.63;1.48;;;15.90;63.50;;;;;;10455547;28;20128;-55
2023/03/13 04:14:45;;;;;;;3.88;1.60;;;16.00;62.80;;;;;;10453894;28;20464;-55
2023/03/13 04:19:46;;;;;;;2.95;1.08;;;16.20;62.30;;;;;;10453948;28;20036;-54
2023/03/13 04:24:46;;;;;;;2.03;1.30;;;16.40;61.80;;;;;;10455294;28;20385;-55
2023/03/13 04:29:47;;;;;;;1.25;0.85;;;16.60;61.60;;;;;;10455411;28;20060;-55
2023/03/13 04:34:48;;;;;;;2.72;1.00;;;16.70;61.20;;;;;;10448064;28;20049;-55
2023/03/13 04:39:48;;;;;;;1.63;0.68;;;16.70;61.10;;;;;;10448920;28;20504;-54
2023/03/13 04:44:49;;;;;;;1.92;1.00;;;16.80;60.90;;;;;;10448894;28;20415;-54
2023/03/13 04:49:50;;;;;;;2.40;1.10;;;16.80;60.80;;;;;;10458405;28;20036;-54
2023/03/13 04:54:50;;;;;;;1.98;0.65;;;16.90;60.80;;;;;;10446886;28;20412;-55
2023/03/13 04:59:51;;;;;;;2.63;0.88;;;17.00;60.50;;;;;;10447714;28;20057;-54
2023/03/13 05:04:52;;;;;;;2.33;0.70;;;17.00;60.50;;;;;;10447873;28;20092;-54
2023/03/13 05:09:52;;;;;;;2.60;1.20;;;17.10;60.40;;;;;;10446152;28;20134;-54
2023/03/13 05:14:53;;;;;;;2.85;1.67;;;17.00;60.60;;;;;;10447294;28;20657;-55
2023/03/13 05:19:54;;;;;;;1.90;0.70;;;17.00;60.90;;;;;;10446538;28;20163;-55
2023/03/13 05:24:54;;;;;;;1.60;0.70;;;16.80;61.10;;;;;;10446737;28;20485;-55
2023/03/13 05:29:55;;;;;;;3.60;0.70;;;16.80;61.40;;;;;;10446481;28;20017;-53
2023/03/13 05:34:56;;;;;;;1.48;0.65;;;16.70;61.60;;;;;;10446436;28;20064;-54
2023/03/13 05:39:56;;;;;;;3.67;0.98;;;16.60;61.90;;;;;;10444769;28;20108;-54
2023/03/13 05:44:57;;;;;;;1.83;1.20;;;16.60;62.00;;;;;;10444449;28;20041;-53
2023/03/13 05:49:57;;;;;;;2.33;0.80;;;16.50;62.20;;;;;;10440705;28;20448;-53
2023/03/13 05:54:58;;;;;;;1.40;0.70;;;16.50;62.20;;;;;;10444306;28;20049;-54
2023/03/13 05:59:59;;;;;;;1.27;0.70;;;16.50;62.30;;;;;;10431926;28;20053;-55
2023/03/13 06:05:00;;;;;;;2.22;0.93;;;16.40;62.50;;;;;;10444028;28;20718;-53
2023/03/13 06:10:02;;;;;;;6.82;1.33;;;16.40;62.60;;;;;;10444710;28;20059;-53
2023/03/13 06:15:05;;;;;;;6.50;1.00;;;16.50;63.20;;;;;;10443663;28;20446;-56
2023/03/13 06:20:06;;;;;;;2.92;0.80;;;16.70;63.30;;;;;;10440206;28;20024;-56
2023/03/13 06:25:08;;;;;;;5.60;1.42;;;16.70;63.90;;;;;;10440062;28;20411;-54
2023/03/13 06:30:10;;;;;;;6.32;1.33;;;16.70;64.30;;;;;;10444375;28;20017;-54
2023/03/13 06:35:10;;;;;;;4.93;1.25;;;16.70;64.40;;;;;;10444194;28;20100;-54
2023/03/13 06:40:12;;;;;;;6.93;0.93;;;16.90;63.60;;;;;;10445440;28;20124;-56
2023/03/13 06:45:12;;;;;;;19.25;1.80;;;17.00;62.30;;;;;;10445260;28;20021;-56
2023/03/13 06:50:13;;;;;;;17.00;1.95;;;17.00;62.50;;;;;;10454615;28;20492;-58
2023/03/13 06:55:14;;;;;;;14.48;1.88;;;17.20;62.60;;;;;;10446184;28;20021;-58
2023/03/13 07:00:15;;;;;;;16.13;2.25;;;17.40;62.50;;;;;;10443044;28;20021;-54
2023/03/13 07:05:16;;;;;;;23.35;3.13;;;17.60;62.20;;;;;;10441543;28;20745;-59
2023/03/13 07:10:17;;;;;;;15.77;3.67;;;17.70;62.10;;;;;;10428013;28;20056;-57
2023/03/13 07:15:17;;;;;;;18.02;4.15;;;17.70;62.20;;;;;;10424736;28;20033;-57
2023/03/13 07:20:18;;;;;;;41.72;4.15;;;17.70;62.30;;;;;;10440858;28;20094;-58
2023/03/13 07:25:19;;;;;;;20.45;3.17;;;17.60;63.00;;;;;;10440121;28;20009;-58
2023/03/13 07:30:20;;;;;;;15.68;3.00;;;17.80;62.30;;;;;;10435056;28;20025;-58
2023/03/13 07:35:20;;;;;;;13.95;2.50;;;17.70;62.10;;;;;;10439490;28;20582;-58
2023/03/13 07:40:21;;;;;;;16.10;2.78;;;17.70;62.50;;;;;;10432205;28;20581;-61
2023/03/13 07:45:22;;;;;;;12.32;2.88;;;17.90;62.30;;;;;;10421143;28;20105;-56
2023/03/13 07:50:22;;;;;;;19.42;2.63;;;17.90;62.60;;;;;;10427053;28;20056;-56
2023/03/13 07:55:23;;;;;;;13.48;2.00;;;17.90;62.70;;;;;;10409159;28;20057;-57
2023/03/13 08:00:24;;;;;;;8.85;2.47;;;17.90;62.80;;;;;;10426398;28;20139;-57
2023/03/13 08:05:24;;;;;;;13.77;2.40;;;17.90;62.70;;;;;;10441902;28;20021;-57
2023/03/13 08:10:25;;;;;;;9.07;2.08;;;17.90;63.10;;;;;;10432625;28;20132;-57
2023/03/13 08:15:27;;;;;;;8.65;1.58;;;17.90;63.60;;;;;;10450911;28;20109;-58
2023/03/13 08:20:28;;;;;;;12.18;1.58;;;17.80;63.00;;;;;;10455152;28;20059;-59
2023/03/13 08:25:28;;;;;;;8.52;1.75;;;17.70;63.50;;;;;;10442890;28;20063;-60
2023/03/13 08:30:29;;;;;;;8.80;1.70;;;17.60;63.50;;;;;;10432552;28;20104;-60
2023/03/13 08:35:30;;;;;;;11.10;1.50;;;17.60;63.60;;;;;;10430312;28;20465;-60
2023/03/13 08:40:30;;;;;;;7.25;1.50;;;17.50;63.80;;;;;;10439701;28;20594;-59
2023/03/13 08:45:31;;;;;;;7.45;1.60;;;17.50;63.50;;;;;;10409081;28;20124;-59
2023/03/13 08:50:32;;;;;;;11.70;2.70;;;17.50;63.50;;;;;;10401580;28;20115;-59
2023/03/13 08:55:32;;;;;;;4.55;1.92;;;17.60;63.40;;;;;;10422749;28;20399;-58
2023/03/13 09:00:33;;;;;;;10.40;3.00;;;17.70;63.20;;;;;;10425518;28;20112;-59
2023/03/13 09:05:37;;;;;;;9.52;2.10;;;17.60;65.80;;;;;;10426504;28;20450;-59
2023/03/13 09:10:37;;;;;;;7.93;2.10;;;17.50;68.60;;;;;;10423507;28;20037;-60
2023/03/13 09:15:39;;;;;;;9.48;1.60;;;17.60;67.70;;;;;;10435640;28;20052;-58
2023/03/13 09:20:42;;;;;;;8.68;1.50;;;17.70;65.90;;;;;;10438925;28;20059;-58
2023/03/13 09:25:43;;;;;;;7.38;1.70;;;17.50;65.60;;;;;;10445053;28;20374;-57
2023/03/13 09:30:44;;;;;;;4.55;1.60;;;17.50;65.40;;;;;;10446969;28;20045;-56
2023/03/13 09:35:49;;;;;;;4.90;1.40;;;17.50;65.10;;;;;;10447794;28;20025;-59
2023/03/13 09:40:52;;;;;;;8.05;1.75;;;17.50;66.00;;;;;;10446488;28;20060;-60
2023/03/13 09:45:59;;;;;;;4.90;2.70;;;17.60;66.20;;;;;;10434815;28;20025;-59
2023/03/13 09:51:13;;;;;;;5.75;1.45;;;17.50;66.20;;;;;;10406088;28;20021;-61
2023/03/13 09:56:24;;;;;;;7.15;1.27;;;17.50;66.20;;;;;;10438292;28;20029;-63
2023/03/13 10:01:32;;;;;;;7.15;1.25;;;17.60;66.30;;;;;;10446807;28;20465;-60
2023/03/13 10:06:40;;;;;;;8.05;1.30;;;17.60;66.20;;;;;;10444407;28;20082;-59
2023/03/13 10:12:04;;;;;;;10.65;1.67;;;17.60;66.10;;;;;;10443717;28;20021;-59
2023/03/13 10:17:29;;;;;;;10.93;1.90;;;17.50;66.10;;;;;;10446302;28;20410;-60
2023/03/13 10:22:31;;;;;;;13.18;1.95;;;17.40;66.50;;;;;;10438697;28;20078;-59
2023/03/13 10:27:48;;;;;;;8.10;1.55;;;17.40;66.20;;;;;;10440684;28;20025;-56
2023/03/13 10:32:49;;;;;;;12.63;1.50;;;17.40;66.30;;;;;;10444539;28;20017;-57
2023/03/13 10:38:03;;;;;;;6.97;1.77;;;17.40;66.00;;;;;;10444142;28;20079;-57
2023/03/13 10:43:20;;;;;;;6.28;1.88;;;17.30;65.90;;;;;;10428077;28;20020;-56
2023/03/13 10:48:29;;;;;;;8.57;2.63;;;17.30;65.90;;;;;;10430286;28;20491;-56
2023/03/13 10:53:29;;;;;;;4.37;1.30;;;17.20;66.00;;;;;;10457181;28;20079;-57
2023/03/13 10:58:34;;;;;;;5.53;1.30;;;17.10;66.10;;;;;;10443492;28;20037;-57
2023/03/13 11:03:35;;;;;;;6.55;2.00;;;17.20;66.00;;;;;;10444205;28;20025;-58
2023/03/13 11:08:36;;;;;;;4.75;1.92;;;17.30;65.60;;;;;;10443135;28;20503;-57
2023/03/13 11:13:43;;;;;;;3.17;1.67;;;17.30;65.40;;;;;;10451101;28;20009;-57
2023/03/13 11:19:08;;;;;;;5.85;1.55;;;17.20;65.50;;;;;;10442659;28;20525;-57
2023/03/13 11:24:25;;;;;;;4.65;1.60;;;17.20;65.80;;;;;;10444190;28;20108;-57
2023/03/13 11:30:04;;;;;;;6.00;2.05;;;17.00;66.30;;;;;;10442953;28;20025;-57
2023/03/13 11:35:29;;;;;;;2.25;0.85;;;16.90;66.70;;;;;;10430708;28;20041;-56
2023/03/13 11:40:40;;;;;;;3.85;1.58;;;16.90;66.90;;;;;;10443788;28;20367;-58
2023/03/13 11:45:55;;;;;;;4.95;1.30;;;16.90;67.00;;;;;;10420298;28;20025;-56
2023/03/13 11:51:19;;;;;;;4.40;1.33;;;16.80;67.00;;;;;;10442102;28;20037;-56
2023/03/13 11:56:45;;;;;;;5.20;2.22;;;16.80;66.90;;;;;;10447277;28;20088;-58
2023/03/13 12:01:55;;;;;;;5.00;1.40;;;16.80;67.20;;;;;;10425764;28;20052;-56
2023/03/13 12:07:06;;;;;;;3.70;1.10;;;16.90;67.20;;;;;;10440034;28;20045;-57
2023/03/13 12:12:46;;;;;;;5.90;1.50;;;16.90;67.10;;;;;;10427208;28;20029;-59
2023/03/13 12:18:21;;;;;;;4.72;1.30;;;16.90;67.50;;;;;;10435345;28;20564;-59
2023/03/13 12:23:40;;;;;;;4.95;1.70;;;16.90;67.80;;;;;;10431708;28;20020;-59
2023/03/13 12:29:28;;;;;;;1.58;0.77;;;16.90;67.90;;;;;;10438371;28;20079;-60
2023/03/13 12:34:59;;;;;;;4.03;1.27;;;16.90;68.10;;;;;;10416808;28;20048;-59
2023/03/13 12:40:30;;;;;;;3.55;1.10;;;17.00;68.00;;;;;;10431067;28;20030;-59
2023/03/13 12:45:34;;;;;;;6.63;1.23;;;17.10;68.10;;;;;;10443827;28;20017;-59
2023/03/13 12:51:24;;;;;;;4.25;1.77;;;17.00;68.00;;;;;;10429837;28;20025;-60
2023/03/13 12:57:16;;;;;;;5.35;1.27;;;17.10;68.00;;;;;;10434499;28;20024;-60
2023/03/13 13:02:27;;;;;;;6.57;1.48;;;17.00;68.00;;;;;;10419052;28;20025;-59
2023/03/13 13:07:33;;;;;;;5.18;1.05;;;17.10;67.90;;;;;;10433255;28;20325;-60
2023/03/13 13:12:42;;;;;;;8.13;1.33;;;17.00;68.10;;;;;;10447016;28;20078;-59
2023/03/13 13:18:25;;;;;;;10.35;2.08;;;17.00;68.30;;;;;;10423499;28;20033;-58
2023/03/13 13:23:45;;;;;;;9.00;1.80;;;17.10;68.20;;;;;;10438088;28;20067;-60
2023/03/13 13:28:45;;;;;;;;;;;17.20;68.20;;;;;;10446721;28;20229;-57
2023/03/13 13:33:46;;;;;;;23.17;2.95;;;17.20;68.60;;;;;;10438714;28;19908;-59
2023/03/13 13:38:47;;;;;;;27.77;4.05;;;17.20;69.00;;;;;;10439118;28;20045;-58
2023/03/13 13:44:09;;;;;;;22.90;4.60;;;17.20;69.00;;;;;;10440442;28;20349;-60
2023/03/13 13:49:19;;;;;;;24.67;3.85;;;17.10;69.30;;;;;;10458557;28;20032;-57
2023/03/13 13:54:44;;;;;;;24.88;4.03;;;17.20;69.50;;;;;;10440334;28;20110;-58
2023/03/13 13:59:56;;;;;;;22.15;3.58;;;17.20;69.50;;;;;;10436365;28;20099;-58
2023/03/13 14:05:14;;;;;;;17.80;2.80;;;17.20;68.50;;;;;;10441943;28;20422;-59
2023/03/13 14:10:41;;;;;;;22.73;4.72;;;17.20;67.10;;;;;;10436059;28;20049;-57
2023/03/13 14:15:47;;;;;;;20.38;3.10;;;17.20;66.00;;;;;;10446188;28;20021;-57
2023/03/13 14:21:01;;;;;;;19.05;3.35;;;17.30;65.70;;;;;;10429816;28;20044;-59
2023/03/13 14:26:16;;;;;;;13.98;2.25;;;17.30;65.00;;;;;;10460884;28;20353;-57
2023/03/13 14:31:34;;;;;;;12.75;2.33;;;17.40;64.80;;;;;;10442857;28;20504;-57
2023/03/13 14:36:53;;;;;;;13.35;3.25;;;17.30;64.00;;;;;;10439740;28;20036;-57
2023/03/13 14:42:00;;;;;;;15.82;3.17;;;17.40;63.80;;;;;;10440086;28;20104;-59
2023/03/13 14:47:17;;;;;;;15.70;2.92;;;17.30;64.20;;;;;;10434312;28;20068;-58
2023/03/13 14:52:24;;;;;;;11.07;2.53;;;17.20;64.40;;;;;;10445109;28;20013;-58
2023/03/13 14:57:26;;;;;;;15.40;3.88;;;17.20;64.70;;;;;;10426725;28;20036;-58
2023/03/13 15:02:31;;;;;;;9.10;2.63;;;17.20;63.90;;;;;;10443205;28;20025;-60
2023/03/13 15:07:53;;;;;;;20.15;4.93;;;17.10;63.90;;;;;;10442611;28;20128;-58
2023/03/13 15:12:53;;;;;;;10.57;3.10;;;17.10;63.90;;;;;;10441698;28;20035;-59
2023/03/13 15:17:54;;;;;;;8.73;2.63;;;17.10;63.60;;;;;;10428828;28;20060;-58
2023/03/13 15:22:56;;;;;;;10.10;2.67;;;17.10;63.60;;;;;;10442833;28;20021;-58
2023/03/13 15:27:57;;;;;;;10.07;2.90;;;17.10;63.60;;;;;;10440092;28;20024;-58
2023/03/13 15:32:59;;;;;;;7.10;3.15;;;17.10;63.30;;;;;;10425230;28;20057;-58
2023/03/13 15:38:01;;;;;;;10.52;2.83;;;17.10;63.50;;;;;;10442507;28;20045;-57
2023/03/13 15:43:01;;;;;;;11.85;3.63;;;17.00;63.30;;;;;;10423862;28;20452;-59
2023/03/13 15:48:14;;;;;;;9.63;2.70;;;17.00;63.30;;;;;;10437087;28;20059;-59
2023/03/13 15:53:22;;;;;;;9.68;3.45;;;16.90;63.10;;;;;;10442507;28;20486;-60
2023/03/13 15:58:24;;;;;;;6.93;2.47;;;16.90;62.90;;;;;;10428699;28;20024;-59
2023/03/13 16:03:27;;;;;;;17.35;3.78;;;16.90;63.70;;;;;;10433569;28;20532;-59
2023/03/13 16:08:29;;;;;;;15.52;3.90;;;16.90;63.30;;;;;;10424111;28;20048;-60
2023/03/13 16:13:30;;;;;;;11.45;2.58;;;16.90;63.90;;;;;;10421882;28;20071;-60
2023/03/13 16:18:30;;;;;;;14.25;2.80;;;16.90;64.80;;;;;;10442843;28;20039;-61
2023/03/13 16:23:31;;;;;;;12.30;2.92;;;16.90;65.20;;;;;;10429673;28;20048;-63
2023/03/13 16:28:32;;;;;;;6.38;2.10;;;16.90;65.50;;;;;;10417647;28;20120;-60
2023/03/13 16:33:32;;;;;;;13.55;2.40;;;16.90;65.30;;;;;;10417935;28;20096;-61
2023/03/13 16:38:33;;;;;;;9.27;2.47;;;16.90;65.70;;;;;;10441041;28;20138;-61
2023/03/13 16:43:34;;;;;;;8.73;2.72;;;16.90;66.10;;;;;;10453216;28;20088;-61
2023/03/13 16:48:34;;;;;;;15.48;2.80;;;16.80;66.50;;;;;;10441469;28;20108;-61
2023/03/13 16:53:35;;;;;;;16.90;3.53;;;16.80;66.60;;;;;;10446055;28;20122;-62
2023/03/13 16:58:36;;;;;;;8.60;2.38;;;16.80;66.60;;;;;;10440337;28;20068;-60
2023/03/13 17:03:36;;;;;;;13.55;2.53;;;16.80;66.80;;;;;;10422875;28;20056;-57
2023/03/13 17:08:38;;;;;;;11.50;2.53;;;16.90;66.70;;;;;;10423877;28;20134;-59
2023/03/13 17:13:39;;;;;;;12.55;2.85;;;17.10;67.50;;;;;;10432973;28;20021;-60
2023/03/13 17:18:40;;;;;;;19.02;3.17;;;17.40;67.20;;;;;;10429665;28;20124;-60
2023/03/13 17:23:41;;;;;;;19.65;3.45;;;17.40;67.60;;;;;;10435813;28;20628;-59
2023/03/13 17:28:44;;;;;;;8.68;2.60;;;17.30;67.90;;;;;;10429769;28;20021;-61
2023/03/13 17:33:46;;;;;;;10.23;2.70;;;17.30;68.10;;;;;;10422026;28;20060;-59
2023/03/13 17:38:51;;;;;;;13.23;2.80;;;17.30;68.10;;;;;;10433216;28;20044;-61
2023/03/13 17:43:52;;;;;;;9.50;2.30;;;17.30;67.80;;;;;;10419454;28;20453;-59
2023/03/13 17:48:53;;;;;;;8.98;2.53;;;17.20;68.50;;;;;;10416957;28;20127;-60
2023/03/13 17:53:55;;;;;;;7.05;1.70;;;17.20;68.50;;;;;;10424280;28;20072;-57
2023/03/13 17:58:59;;;;;;;12.43;2.33;;;17.20;69.00;;;;;;10432184;28;20057;-59
2023/03/13 18:04:01;;;;;;;15.95;2.80;;;17.30;68.70;;;;;;10423341;28;20100;-59
2023/03/13 18:09:07;;;;;;;17.90;3.35;;;17.20;68.70;;;;;;10442464;28;20051;-61
2023/03/13 18:14:08;;;;;;;9.68;3.03;;;17.00;68.60;;;;;;10427306;28;20072;-60
2023/03/13 18:19:18;;;;;;;7.70;2.13;;;16.90;68.70;;;;;;10426274;28;20449;-60
2023/03/13 18:24:19;;;;;;;;;;;16.90;68.60;;;;;;10443371;28;20048;-61
2023/03/13 18:29:25;;;;;;;8.13;1.83;;;16.80;68.50;;;;;;10431409;28;20036;-61
2023/03/13 18:34:27;;;;;;;6.35;2.40;;;16.80;68.50;;;;;;10443332;28;20009;-61
2023/03/13 18:39:31;;;;;;;8.02;1.98;;;16.80;68.40;;;;;;10444291;28;20502;-60
2023/03/13 18:44:31;;;;;;;7.25;1.63;;;16.80;68.60;;;;;;10436303;28;20029;-61
2023/03/13 18:49:32;;;;;;;7.18;2.05;;;16.80;68.30;;;;;;10435674;28;20113;-61
2023/03/13 18:54:33;;;;;;;5.72;1.90;;;16.80;68.10;;;;;;10424728;28;20107;-60
2023/03/13 18:59:34;;;;;;;6.30;1.80;;;16.90;67.90;;;;;;10432913;28;20029;-60
2023/03/13 19:04:35;;;;;;;4.80;1.92;;;16.90;67.90;;;;;;10440763;28;20028;-59
2023/03/13 19:09:35;;;;;;;5.80;2.67;;;17.00;67.60;;;;;;10444137;28;20115;-59
2023/03/13 19:14:36;;;;;;;5.07;1.10;;;17.10;67.30;;;;;;10442321;28;20112;-59
2023/03/13 19:19:37;;;;;;;4.45;2.83;;;17.10;67.00;;;;;;10439281;28;20431;-58
2023/03/13 19:24:37;;;;;;;5.20;1.77;;;17.20;66.70;;;;;;10444343;28;20021;-58
2023/03/13 19:29:38;;;;;;;5.07;1.60;;;17.20;66.50;;;;;;10442891;28;20040;-59
2023/03/13 19:34:40;;;;;;;7.50;1.35;;;17.10;66.60;;;;;;10439849;28;20117;-59
2023/03/13 19:39:41;;;;;;;3.33;1.55;;;17.10;66.60;;;;;;10443300;28;20126;-59
2023/03/13 19:44:42;;;;;;;6.30;2.47;;;17.00;66.70;;;;;;10438795;28;20135;-59
2023/03/13 19:49:44;;;;;;;4.43;1.40;;;17.00;66.80;;;;;;10450874;28;20053;-59
2023/03/13 19:54:44;;;;;;;3.17;1.33;;;16.90;66.80;;;;;;10443662;28;20013;-59
2023/03/13 19:59:45;;;;;;;5.93;1.77;;;17.00;66.50;;;;;;10444451;28;20040;-59
2023/03/13 20:04:46;;;;;;;5.22;1.25;;;17.10;66.20;;;;;;10447659;28;20111;-59
2023/03/13 20:09:46;;;;;;;2.95;1.40;;;17.10;66.20;;;;;;10447628;28;20136;-59
2023/03/13 20:14:47;;;;;;;4.70;1.20;;;17.20;66.00;;;;;;10449680;28;20038;-59
2023/03/13 20:19:48;;;;;;;5.00;1.48;;;17.20;65.70;;;;;;10448845;28;20409;-59
2023/03/13 20:24:48;;;;;;;6.93;2.20;;;17.10;65.70;;;;;;10449637;28;20108;-58
2023/03/13 20:29:49;;;;;;;4.47;2.20;;;17.10;65.80;;;;;;10449565;28;20032;-59
2023/03/13 20:34:50;;;;;;;4.05;2.10;;;17.00;65.80;;;;;;10444339;28;20362;-59
2023/03/13 20:39:50;;;;;;;4.95;1.88;;;17.00;65.90;;;;;;10434102;28;20040;-59
2023/03/13 20:44:51;;;;;;;3.38;1.60;;;17.00;66.10;;;;;;10451883;28;20048;-59
2023/03/13 20:49:52;;;;;;;5.38;1.67;;;16.90;66.10;;;;;;10449409;28;20793;-59
2023/03/13 20:54:52;;;;;;;4.57;1.80;;;16.90;66.30;;;;;;10450721;28;20100;-59
2023/03/13 20:59:53;;;;;;;6.13;1.83;;;16.90;66.30;;;;;;10449342;28;20106;-59
2023/03/13 21:04:54;;;;;;;1.95;1.10;;;16.80;66.40;;;;;;10447754;28;20052;-60
2023/03/13 21:09:54;;;;;;;4.45;1.77;;;16.70;66.40;;;;;;10448750;28;20128;-59
2023/03/13 21:14:56;;;;;;;4.03;1.60;;;16.80;67.20;;;;;;10447663;28;20484;-59
2023/03/13 21:19:57;;;;;;;3.08;1.10;;;16.70;66.60;;;;;;10448925;28;20750;-59
2023/03/13 21:25:01;;;;;;;4.03;1.80;;;16.70;67.30;;;;;;10450824;28;20055;-59
2023/03/13 21:30:05;;;;;;;4.07;1.60;;;16.70;66.70;;;;;;10448026;28;20057;-59
2023/03/13 21:35:08;;;;;;;2.08;1.00;;;16.60;66.70;;;;;;10449034;28;20021;-59
2023/03/13 21:40:10;;;;;;;3.47;1.70;;;16.60;66.80;;;;;;10450191;28;20079;-59
2023/03/13 21:45:11;;;;;;;4.47;1.50;;;16.60;66.80;;;;;;10437103;28;20021;-59
2023/03/13 21:50:12;;;;;;;5.32;1.63;;;16.60;66.80;;;;;;10446956;28;20029;-59
2023/03/13 21:55:13;;;;;;;3.63;1.40;;;16.50;66.80;;;;;;10450092;28;20029;-59
2023/03/13 22:00:14;;;;;;;2.67;1.27;;;16.50;66.90;;;;;;10444286;28;20035;-59
2023/03/13 22:05:15;;;;;;;3.90;1.50;;;16.50;66.90;;;;;;10427385;28;20049;-59
2023/03/13 22:10:16;;;;;;;2.83;1.20;;;16.50;66.90;;;;;;10448845;28;20065;-59
2023/03/13 22:15:17;;;;;;;3.60;1.10;;;16.40;66.90;;;;;;10447552;28;20032;-59
2023/03/13 22:20:17;;;;;;;4.68;1.50;;;16.50;66.90;;;;;;10447511;28;20090;-59
2023/03/13 22:25:18;;;;;;;4.78;1.30;;;16.50;66.90;;;;;;10443127;28;20112;-59
2023/03/13 22:30:19;;;;;;;2.50;0.93;;;16.40;66.90;;;;;;10446918;28;20021;-59
2023/03/13 22:35:19;;;;;;;4.03;1.60;;;16.40;66.90;;;;;;10430153;28;20025;-59
2023/03/13 22:40:20;;;;;;;2.03;0.85;;;16.50;67.00;;;;;;10447446;28;20068;-59
2023/03/13 22:45:21;;;;;;;2.33;1.08;;;16.40;67.00;;;;;;10434861;28;20088;-59
2023/03/13 22:50:24;;;;;;;2.88;1.15;;;16.40;67.10;;;;;;10447386;28;20052;-59
2023/03/13 22:55:25;;;;;;;5.18;1.45;;;16.40;67.10;;;;;;10447195;28;20027;-59
2023/03/13 23:00:25;;;;;;;2.33;0.95;;;16.30;67.10;;;;;;10446919;28;20035;-59
2023/03/13 23:05:26;;;;;;;2.60;1.02;;;16.30;67.20;;;;;;10446225;28;20411;-59
2023/03/13 23:10:27;;;;;;;3.85;1.38;;;16.30;67.20;;;;;;10447018;28;20051;-59
2023/03/13 23:15:28;;;;;;;2.47;1.00;;;16.30;67.20;;;;;;10445742;28;20017;-59
2023/03/13 23:20:29;;;;;;;2.67;1.00;;;16.30;67.20;;;;;;10445430;28;20021;-59
2023/03/13 23:25:29;;;;;;;3.00;1.10;;;16.30;67.20;;;;;;10446898;28;20451;-59
2023/03/13 23:30:30;;;;;;;2.28;0.88;;;16.30;67.20;;;;;;10444239;28;20057;-59
2023/03/13 23:35:31;;;;;;;3.80;1.20;;;16.30;67.20;;;;;;10445119;28;20032;-59
2023/03/13 23:40:31;;;;;;;2.45;1.02;;;16.30;67.20;;;;;;10453268;28;20037;-59
2023/03/13 23:45:35;;;;;;;2.78;0.98;;;16.20;67.20;;;;;;10426802;28;20099;-59
2023/03/13 23:50:35;;;;;;;2.45;1.10;;;16.20;67.20;;;;;;10465042;28;20028;-59
2023/03/13 23:55:36;;;;;;;3.47;1.17;;;16.20;67.10;;;;;;10453705;28;20096;-60
